sensor_id;sensor_type;location;lat;lon;timestamp;P1;durP1;ratioP1;P2;durP2;ratioP2
41139;SDS011;26881;48.784;9.192;2023-07-02T06:13:27;10.68;;;5.82;;
41139;SDS011;26881;48.784;9.192;2023-07-02T06:18:49;14.75;;;6.20;;
41139;SDS011;26881;48.784;9.192;2023-07-02T06:24:11;12.82;;;6.57;;
41139;SDS011;26881;48.784;9.192;2023-07-02T06:29:34;10.93;;;7.53;;
41139;SDS011;26881;48.784;9.192;2023-07-02T06:34:56;23.38;;;9.02;;
41139;SDS011;26881;48.784;9.192;2023-07-02T06:40:17;14.25;;;9.15;;
41139;SDS011;26881;48.784;9.192;2023-07-02T06:45:39;16.25;;;8.15;;
41139;SDS011;26881;48.784;9.192;2023-07-02T06:51:01;16.65;;;9.20;;
41139;SDS011;26881;48.784;9.192;2023-07-02T06:56:23;19.02;;;9.20;;
41139;SDS011;26881;48.784;9.192;2023-07-02T07:01:45;20.40;;;12.18;;
41139;SDS011;26881;48.784;9.192;2023-07-02T07:07:07;21.38;;;11.00;;
41139;SDS011;26881;48.784;9.192;2023-07-02T07:12:29;20.30;;;10.70;;
41139;SDS011;26881;48.784;9.192;2023-07-02T07:17:51;18.67;;;10.48;;
41139;SDS011;26881;48.784;9.192;2023-07-02T07:23:14;17.83;;;9.60;;
41139;SDS011;26881;48.784;9.192;2023-07-02T07:28:37;19.95;;;12.25;;
41139;SDS011;26881;48.784;9.192;2023-07-02T07:33:59;21.85;;;12.15;;
41139;SDS011;26881;48.784;9.192;2023-07-02T07:39:21;26.25;;;14.20;;
41139;SDS011;26881;48.784;9.192;2023-07-02T07:44:46;23.92;;;13.82;;
41139;SDS011;26881;48.784;9.192;2023-07-02T07:50:08;21.73;;;13.77;;
41139;SDS011;26881;48.784;9.192;2023-07-02T07:55:33;20.60;;;13.40;;
41139;SDS011;26881;48.784;9.192;2023-07-02T08:00:55;23.80;;;14.20;;
41139;SDS011;26881;48.784;9.192;2023-07-02T08:06:17;22.95;;;14.13;;
41139;SDS011;26881;48.784;9.192;2023-07-02T08:11:39;25.55;;;14.70;;
41139;SDS011;26881;48.784;9.192;2023-07-02T08:17:01;23.50;;;15.00;;
41139;SDS011;26881;48.784;9.192;2023-07-02T08:22:23;22.27;;;13.27;;
41139;SDS011;26881;48.784;9.192;2023-07-02T08:27:45;26.25;;;14.75;;
41139;SDS011;26881;48.784;9.192;2023-07-02T08:33:07;25.90;;;14.00;;
41139;SDS011;26881;48.784;9.192;2023-07-02T08:38:28;28.75;;;14.25;;
41139;SDS011;26881;48.784;9.192;2023-07-02T08:43:50;21.00;;;13.93;;
41139;SDS011;26881;48.784;9.192;2023-07-02T08:49:16;24.95;;;12.98;;
41139;SDS011;26881;48.784;9.192;2023-07-02T08:54:39;22.50;;;12.93;;
41139;SDS011;26881;48.784;9.192;2023-07-02T09:00:03;21.38;;;12.80;;
41139;SDS011;26881;48.784;9.192;2023-07-02T09:05:29;21.90;;;11.50;;
41139;SDS011;26881;48.784;9.192;2023-07-02T09:10:51;20.25;;;11.85;;
41139;SDS011;26881;48.784;9.192;2023-07-02T09:16:20;22.77;;;11.88;;
41139;SDS011;26881;48.784;9.192;2023-07-02T09:21:49;18.77;;;11.50;;
41139;SDS011;26881;48.784;9.192;2023-07-02T09:27:11;20.52;;;12.10;;
41139;SDS011;26881;48.784;9.192;2023-07-02T09:32:33;18.02;;;11.63;;
41139;SDS011;26881;48.784;9.192;2023-07-02T09:37:55;19.77;;;12.57;;
41139;SDS011;26881;48.784;9.192;2023-07-02T09:43:17;18.88;;;11.68;;
41139;SDS011;26881;48.784;9.192;2023-07-02T09:48:40;19.35;;;12.20;;
41139;SDS011;26881;48.784;9.192;2023-07-02T09:54:02;19.48;;;11.85;;
41139;SDS011;26881;48.784;9.192;2023-07-02T09:59:24;18.85;;;11.40;;
41139;SDS011;26881;48.784;9.192;2023-07-02T10:04:46;18.77;;;11.82;;
41139;SDS011;26881;48.784;9.192;2023-07-02T10:10:12;21.65;;;12.63;;
41139;SDS011;26881;48.784;9.192;2023-07-02T10:15:34;20.38;;;12.48;;
41139;SDS011;26881;48.784;9.192;2023-07-02T10:20:59;18.75;;;12.32;;
41139;SDS011;26881;48.784;9.192;2023-07-02T10:26:21;16.60;;;11.90;;
41139;SDS011;26881;48.784;9.192;2023-07-02T10:31:49;21.35;;;12.93;;
41139;SDS011;26881;48.784;9.192;2023-07-02T10:37:15;22.10;;;13.00;;
41139;SDS011;26881;48.784;9.192;2023-07-02T10:42:55;21.63;;;13.23;;
41139;SDS011;26881;48.784;9.192;2023-07-02T10:48:17;24.25;;;13.63;;
41139;SDS011;26881;48.784;9.192;2023-07-02T10:53:39;21.45;;;13.20;;
41139;SDS011;26881;48.784;9.192;2023-07-02T10:59:00;19.38;;;13.10;;
41139;SDS011;26881;48.784;9.192;2023-07-02T11:04:23;19.83;;;14.35;;
41139;SDS011;26881;48.784;9.192;2023-07-02T11:09:51;18.58;;;12.25;;
41139;SDS011;26881;48.784;9.192;2023-07-02T11:15:14;18.77;;;13.82;;
41139;SDS011;26881;48.784;9.192;2023-07-02T11:20:37;19.40;;;13.90;;
41139;SDS011;26881;48.784;9.192;2023-07-02T11:26:01;21.92;;;13.57;;
41139;SDS011;26881;48.784;9.192;2023-07-02T11:31:25;21.25;;;13.20;;
41139;SDS011;26881;48.784;9.192;2023-07-02T11:36:49;16.48;;;12.45;;
41139;SDS011;26881;48.784;9.192;2023-07-02T11:42:11;18.27;;;13.10;;
41139;SDS011;26881;48.784;9.192;2023-07-02T11:47:33;22.20;;;12.18;;
41139;SDS011;26881;48.784;9.192;2023-07-02T11:52:55;14.20;;;12.18;;
41139;SDS011;26881;48.784;9.192;2023-07-02T11:58:17;15.85;;;11.85;;
41139;SDS011;26881;48.784;9.192;2023-07-02T12:03:39;18.95;;;13.00;;
41139;SDS011;26881;48.784;9.192;2023-07-02T12:09:04;19.02;;;12.85;;
41139;SDS011;26881;48.784;9.192;2023-07-02T12:14:25;17.30;;;12.63;;
41139;SDS011;26881;48.784;9.192;2023-07-02T12:19:47;21.77;;;12.57;;
41139;SDS011;26881;48.784;9.192;2023-07-02T12:25:09;17.08;;;12.60;;
41139;SDS011;26881;48.784;9.192;2023-07-02T12:30:31;16.85;;;13.40;;
41139;SDS011;26881;48.784;9.192;2023-07-02T12:35:54;17.30;;;12.45;;
41139;SDS011;26881;48.784;9.192;2023-07-02T12:41:15;16.05;;;11.80;;
41139;SDS011;26881;48.784;9.192;2023-07-02T12:46:37;16.48;;;12.63;;
41139;SDS011;26881;48.784;9.192;2023-07-02T12:52:00;17.92;;;12.27;;
41139;SDS011;26881;48.784;9.192;2023-07-02T12:57:21;15.30;;;12.13;;
41139;SDS011;26881;48.784;9.192;2023-07-02T13:02:43;17.35;;;13.07;;
41139;SDS011;26881;48.784;9.192;2023-07-02T13:08:24;16.70;;;12.70;;
41139;SDS011;26881;48.784;9.192;2023-07-02T13:13:46;15.63;;;12.45;;
41139;SDS011;26881;48.784;9.192;2023-07-02T13:19:08;15.55;;;11.70;;
41139;SDS011;26881;48.784;9.192;2023-07-02T13:24:33;14.25;;;11.52;;
41139;SDS011;26881;48.784;9.192;2023-07-02T13:29:56;12.35;;;11.00;;
41139;SDS011;26881;48.784;9.192;2023-07-02T13:35:18;14.30;;;11.75;;
41139;SDS011;26881;48.784;9.192;2023-07-02T13:40:40;18.40;;;13.45;;
41139;SDS011;26881;48.784;9.192;2023-07-02T13:46:02;19.08;;;12.65;;
41139;SDS011;26881;48.784;9.192;2023-07-02T13:51:24;14.82;;;12.10;;
41139;SDS011;26881;48.784;9.192;2023-07-02T13:56:46;15.98;;;11.85;;
41139;SDS011;26881;48.784;9.192;2023-07-02T14:02:11;14.70;;;11.65;;
41139;SDS011;26881;48.784;9.192;2023-07-02T14:07:33;17.15;;;10.88;;
41139;SDS011;26881;48.784;9.192;2023-07-02T14:12:55;15.63;;;12.13;;
41139;SDS011;26881;48.784;9.192;2023-07-02T14:18:17;15.13;;;12.18;;
41139;SDS011;26881;48.784;9.192;2023-07-02T14:23:38;15.13;;;12.00;;
41139;SDS011;26881;48.784;9.192;2023-07-02T14:29:00;14.48;;;12.43;;
41139;SDS011;26881;48.784;9.192;2023-07-02T14:34:23;16.30;;;11.65;;
41139;SDS011;26881;48.784;9.192;2023-07-02T14:39:45;20.75;;;12.40;;
41139;SDS011;26881;48.784;9.192;2023-07-02T14:45:26;14.38;;;12.27;;
41139;SDS011;26881;48.784;9.192;2023-07-02T14:50:55;16.95;;;12.02;;
41139;SDS011;26881;48.784;9.192;2023-07-02T14:56:19;15.52;;;12.52;;
41139;SDS011;26881;48.784;9.192;2023-07-02T15:01:41;15.65;;;11.63;;
41139;SDS011;26881;48.784;9.192;2023-07-02T15:07:03;16.50;;;12.75;;
41139;SDS011;26881;48.784;9.192;2023-07-02T15:12:25;17.55;;;12.30;;
41139;SDS011;26881;48.784;9.192;2023-07-02T15:17:47;20.13;;;12.70;;
41139;SDS011;26881;48.784;9.192;2023-07-02T15:23:10;14.90;;;12.55;;
41139;SDS011;26881;48.784;9.192;2023-07-02T15:28:32;13.88;;;12.40;;
41139;SDS011;26881;48.784;9.192;2023-07-02T15:33:55;16.88;;;12.90;;
41139;SDS011;26881;48.784;9.192;2023-07-02T15:39:17;15.93;;;12.70;;
41139;SDS011;26881;48.784;9.192;2023-07-02T15:44:44;18.50;;;13.18;;
41139;SDS011;26881;48.784;9.192;2023-07-02T15:50:07;15.93;;;12.52;;
41139;SDS011;26881;48.784;9.192;2023-07-02T15:55:30;15.90;;;12.30;;
41139;SDS011;26881;48.784;9.192;2023-07-02T16:00:52;16.33;;;12.23;;
41139;SDS011;26881;48.784;9.192;2023-07-02T16:06:14;14.40;;;11.73;;
41139;SDS011;26881;48.784;9.192;2023-07-02T16:11:36;18.27;;;13.27;;
41139;SDS011;26881;48.784;9.192;2023-07-02T16:17:04;14.57;;;12.60;;
41139;SDS011;26881;48.784;9.192;2023-07-02T16:22:26;16.10;;;12.38;;
41139;SDS011;26881;48.784;9.192;2023-07-02T16:27:48;17.08;;;11.95;;
41139;SDS011;26881;48.784;9.192;2023-07-02T16:33:10;15.15;;;12.25;;
41139;SDS011;26881;48.784;9.192;2023-07-02T16:38:32;14.93;;;12.85;;
41139;SDS011;26881;48.784;9.192;2023-07-02T16:43:54;18.15;;;13.05;;
41139;SDS011;26881;48.784;9.192;2023-07-02T16:49:16;18.50;;;13.13;;
41139;SDS011;26881;48.784;9.192;2023-07-02T16:54:39;17.15;;;12.52;;
41139;SDS011;26881;48.784;9.192;2023-07-02T17:00:01;17.00;;;13.18;;
41139;SDS011;26881;48.784;9.192;2023-07-02T17:05:24;18.20;;;12.93;;
41139;SDS011;26881;48.784;9.192;2023-07-02T17:10:46;18.65;;;13.20;;
41139;SDS011;26881;48.784;9.192;2023-07-02T17:16:08;17.55;;;13.10;;
41139;SDS011;26881;48.784;9.192;2023-07-02T17:21:30;19.95;;;14.05;;
41139;SDS011;26881;48.784;9.192;2023-07-02T17:26:52;21.70;;;12.60;;
41139;SDS011;26881;48.784;9.192;2023-07-02T17:32:15;18.30;;;13.27;;
41139;SDS011;26881;48.784;9.192;2023-07-02T17:37:37;20.15;;;13.60;;
41139;SDS011;26881;48.784;9.192;2023-07-02T17:42:59;18.33;;;12.30;;
41139;SDS011;26881;48.784;9.192;2023-07-02T17:48:21;18.73;;;13.43;;
41139;SDS011;26881;48.784;9.192;2023-07-02T17:53:45;20.10;;;13.55;;
41139;SDS011;26881;48.784;9.192;2023-07-02T17:59:07;18.95;;;13.07;;
41139;SDS011;26881;48.784;9.192;2023-07-02T18:04:29;19.30;;;13.07;;
41139;SDS011;26881;48.784;9.192;2023-07-02T18:09:52;21.58;;;15.15;;
41139;SDS011;26881;48.784;9.192;2023-07-02T18:15:14;20.73;;;14.15;;
41139;SDS011;26881;48.784;9.192;2023-07-02T18:20:36;18.55;;;13.57;;
41139;SDS011;26881;48.784;9.192;2023-07-02T18:32:40;22.05;;;13.95;;
41139;SDS011;26881;48.784;9.192;2023-07-02T18:38:02;23.92;;;14.63;;
41139;SDS011;26881;48.784;9.192;2023-07-02T18:43:25;24.55;;;14.95;;
41139;SDS011;26881;48.784;9.192;2023-07-02T18:48:46;20.48;;;14.13;;
41139;SDS011;26881;48.784;9.192;2023-07-02T18:54:08;24.05;;;14.23;;
41139;SDS011;26881;48.784;9.192;2023-07-02T18:59:30;22.20;;;13.52;;
41139;SDS011;26881;48.784;9.192;2023-07-02T19:04:53;25.58;;;15.45;;
41139;SDS011;26881;48.784;9.192;2023-07-02T19:10:15;24.10;;;14.05;;
41139;SDS011;26881;48.784;9.192;2023-07-02T19:15:38;23.17;;;14.20;;
41139;SDS011;26881;48.784;9.192;2023-07-02T19:21:00;23.45;;;14.88;;
41139;SDS011;26881;48.784;9.192;2023-07-02T19:26:22;26.05;;;14.32;;
41139;SDS011;26881;48.784;9.192;2023-07-02T19:31:44;22.45;;;13.95;;
41139;SDS011;26881;48.784;9.192;2023-07-02T19:37:07;25.73;;;14.43;;
41139;SDS011;26881;48.784;9.192;2023-07-02T19:42:33;24.20;;;14.57;;
41139;SDS011;26881;48.784;9.192;2023-07-02T19:47:55;24.40;;;14.50;;
41139;SDS011;26881;48.784;9.192;2023-07-02T19:53:17;25.40;;;13.80;;
41139;SDS011;26881;48.784;9.192;2023-07-02T19:58:39;28.95;;;15.25;;
41139;SDS011;26881;48.784;9.192;2023-07-02T20:04:01;28.15;;;15.02;;
41139;SDS011;26881;48.784;9.192;2023-07-02T20:09:25;24.90;;;15.65;;
41139;SDS011;26881;48.784;9.192;2023-07-02T20:14:46;27.45;;;14.95;;
41139;SDS011;26881;48.784;9.192;2023-07-02T20:20:09;24.55;;;15.70;;
41139;SDS011;26881;48.784;9.192;2023-07-02T20:25:37;22.08;;;14.75;;
41139;SDS011;26881;48.784;9.192;2023-07-02T20:31:11;29.65;;;15.63;;
41139;SDS011;26881;48.784;9.192;2023-07-02T20:36:33;23.85;;;14.80;;
41139;SDS011;26881;48.784;9.192;2023-07-02T20:41:54;24.80;;;14.95;;
41139;SDS011;26881;48.784;9.192;2023-07-02T20:47:19;21.40;;;14.98;;
41139;SDS011;26881;48.784;9.192;2023-07-02T20:52:42;25.52;;;14.90;;
41139;SDS011;26881;48.784;9.192;2023-07-02T20:58:07;31.17;;;15.20;;
41139;SDS011;26881;48.784;9.192;2023-07-02T21:03:29;26.02;;;15.38;;
41139;SDS011;26881;48.784;9.192;2023-07-02T21:08:51;26.65;;;14.50;;
41139;SDS011;26881;48.784;9.192;2023-07-02T21:14:13;22.67;;;14.23;;
41139;SDS011;26881;48.784;9.192;2023-07-02T21:19:35;22.90;;;14.25;;
41139;SDS011;26881;48.784;9.192;2023-07-02T21:24:58;26.17;;;14.23;;
41139;SDS011;26881;48.784;9.192;2023-07-02T21:30:20;22.27;;;13.93;;
41139;SDS011;26881;48.784;9.192;2023-07-02T21:35:43;26.52;;;14.88;;
41139;SDS011;26881;48.784;9.192;2023-07-02T21:41:06;24.63;;;14.10;;
41139;SDS011;26881;48.784;9.192;2023-07-02T21:46:31;27.02;;;14.73;;
41139;SDS011;26881;48.784;9.192;2023-07-02T21:51:58;27.83;;;13.70;;
41139;SDS011;26881;48.784;9.192;2023-07-02T21:57:20;24.92;;;13.70;;
41139;SDS011;26881;48.784;9.192;2023-07-02T22:02:42;25.27;;;13.93;;
41139;SDS011;26881;48.784;9.192;2023-07-02T22:08:04;21.73;;;13.90;;
41139;SDS011;26881;48.784;9.192;2023-07-02T22:13:27;19.23;;;13.00;;
41139;SDS011;26881;48.784;9.192;2023-07-02T22:18:48;28.90;;;14.20;;
41139;SDS011;26881;48.784;9.192;2023-07-02T22:24:12;27.67;;;14.40;;
41139;SDS011;26881;48.784;9.192;2023-07-02T22:29:34;23.25;;;13.65;;
41139;SDS011;26881;48.784;9.192;2023-07-02T22:34:56;29.27;;;14.52;;
41139;SDS011;26881;48.784;9.192;2023-07-02T22:40:18;24.85;;;14.43;;
41139;SDS011;26881;48.784;9.192;2023-07-02T22:45:40;25.15;;;14.15;;
41139;SDS011;26881;48.784;9.192;2023-07-02T22:51:02;25.13;;;13.93;;
41139;SDS011;26881;48.784;9.192;2023-07-02T22:56:27;24.48;;;13.75;;
41139;SDS011;26881;48.784;9.192;2023-07-02T23:01:49;32.20;;;13.63;;
41139;SDS011;26881;48.784;9.192;2023-07-02T23:07:12;24.60;;;13.88;;
41139;SDS011;26881;48.784;9.192;2023-07-02T23:12:34;26.30;;;13.40;;
41139;SDS011;26881;48.784;9.192;2023-07-02T23:17:55;24.55;;;13.68;;
41139;SDS011;26881;48.784;9.192;2023-07-02T23:23:17;20.20;;;12.57;;
41139;SDS011;26881;48.784;9.192;2023-07-02T23:28:39;26.73;;;13.25;;
41139;SDS011;26881;48.784;9.192;2023-07-02T23:34:01;25.45;;;13.38;;
41139;SDS011;26881;48.784;9.192;2023-07-02T23:39:23;21.98;;;12.68;;
41139;SDS011;26881;48.784;9.192;2023-07-02T23:44:45;22.20;;;13.18;;
41139;SDS011;26881;48.784;9.192;2023-07-02T23:50:07;23.80;;;12.30;;
41139;SDS011;26881;48.784;9.192;2023-07-02T23:55:32;22.08;;;11.70;;
